createdAt,value
2022-08-21T00:00:44.446Z,16.62
2022-08-21T00:01:43.136Z,16.62
2022-08-21T00:02:43.035Z,16.63
2022-08-21T00:03:42.843Z,16.65
2022-08-21T00:04:48.266Z,16.65
2022-08-21T00:05:42.960Z,16.65
2022-08-21T00:06:42.893Z,16.67
2022-08-21T00:07:43.130Z,16.67
2022-08-21T00:08:42.858Z,16.67
2022-08-21T00:09:43.053Z,16.65
2022-08-21T00:10:42.801Z,16.67
2022-08-21T00:11:42.789Z,16.65
2022-08-21T00:12:42.983Z,16.65
2022-08-21T00:13:42.905Z,16.65
2022-08-21T00:14:43.092Z,16.63
2022-08-21T00:15:43.099Z,16.62
2022-08-21T00:16:43.244Z,16.62
2022-08-21T00:17:42.766Z,16.59
2022-08-21T00:18:43.365Z,16.59
2022-08-21T00:19:42.868Z,16.60
2022-08-21T00:20:42.743Z,16.60
2022-08-21T00:21:44.272Z,16.59
2022-08-21T00:22:42.929Z,16.59
2022-08-21T00:23:43.460Z,16.59
2022-08-21T00:24:43.030Z,16.58
2022-08-21T00:25:43.429Z,16.58
2022-08-21T00:26:42.783Z,16.59
2022-08-21T00:27:42.811Z,16.59
2022-08-21T00:28:42.618Z,16.58
2022-08-21T00:29:43.118Z,16.56
2022-08-21T00:30:42.933Z,16.58
2022-08-21T00:31:43.033Z,16.58
2022-08-21T00:32:42.935Z,16.56
2022-08-21T00:33:42.733Z,16.55
2022-08-21T00:34:42.865Z,16.53
2022-08-21T00:35:42.839Z,16.50
2022-08-21T00:36:42.660Z,16.50
2022-08-21T00:37:42.863Z,16.49
2022-08-21T00:38:42.531Z,16.45
2022-08-21T00:39:42.843Z,16.44
2022-08-21T00:40:42.850Z,16.44
2022-08-21T00:41:43.048Z,16.42
2022-08-21T00:42:42.780Z,16.41
2022-08-21T00:43:42.669Z,16.38
2022-08-21T00:44:42.519Z,16.38
2022-08-21T00:45:42.592Z,16.37
2022-08-21T00:46:43.042Z,16.34
2022-08-21T00:47:43.170Z,16.30
2022-08-21T00:48:42.411Z,16.27
2022-08-21T00:49:42.472Z,16.25
2022-08-21T00:50:43.404Z,16.22
2022-08-21T00:51:43.093Z,16.20
2022-08-21T00:52:42.559Z,16.14
2022-08-21T00:53:42.592Z,16.11
2022-08-21T00:54:45.847Z,16.07
2022-08-21T00:55:42.556Z,16.03
2022-08-21T00:56:42.320Z,16.01
2022-08-21T00:57:42.308Z,15.99
2022-08-21T00:58:42.257Z,15.97
2022-08-21T00:59:42.261Z,15.93
2022-08-21T01:00:42.367Z,15.89
2022-08-21T01:01:42.322Z,15.86
2022-08-21T01:02:42.713Z,15.85
2022-08-21T01:03:44.122Z,15.81
2022-08-21T01:04:42.235Z,15.78
2022-08-21T01:05:42.214Z,15.78
2022-08-21T01:06:42.330Z,15.75
2022-08-21T01:07:42.221Z,15.72
2022-08-21T01:08:46.640Z,15.67
2022-08-21T01:09:42.206Z,15.66
2022-08-21T01:10:42.174Z,15.63
2022-08-21T01:11:42.211Z,15.60
2022-08-21T01:12:42.134Z,15.59
2022-08-21T01:13:42.123Z,15.57
2022-08-21T01:14:42.100Z,15.54
2022-08-21T01:15:42.075Z,15.51
2022-08-21T01:16:42.122Z,15.48
2022-08-21T01:17:42.037Z,15.48
2022-08-21T01:18:42.413Z,15.45
2022-08-21T01:19:42.060Z,15.41
2022-08-21T01:20:42.034Z,15.41
2022-08-21T01:21:42.248Z,15.36
2022-08-21T01:22:42.155Z,15.35
2022-08-21T01:23:42.050Z,15.33
2022-08-21T01:24:42.109Z,15.31
2022-08-21T01:25:42.015Z,15.27
2022-08-21T01:26:42.113Z,15.27
2022-08-21T01:27:42.162Z,15.26
2022-08-21T01:28:42.175Z,15.24
2022-08-21T01:29:42.422Z,15.21
2022-08-21T01:30:42.003Z,15.21
2022-08-21T01:31:41.966Z,15.19
2022-08-21T01:32:41.952Z,15.17
2022-08-21T01:33:41.903Z,15.15
2022-08-21T01:34:41.915Z,15.13
2022-08-21T01:35:42.121Z,15.13
2022-08-21T01:36:42.110Z,15.11
2022-08-21T01:37:42.269Z,15.09
2022-08-21T01:38:42.307Z,15.08
2022-08-21T01:39:41.944Z,15.06
2022-08-21T01:40:41.953Z,15.03
2022-08-21T01:41:41.832Z,15.02
2022-08-21T01:42:42.040Z,15.01
2022-08-21T01:43:41.829Z,14.99
2022-08-21T01:44:41.816Z,14.95
2022-08-21T01:45:41.772Z,14.93
2022-08-21T01:46:41.900Z,14.91
2022-08-21T01:47:41.761Z,14.90
2022-08-21T01:48:41.754Z,14.87
2022-08-21T01:49:41.753Z,14.87
2022-08-21T01:50:41.736Z,14.84
2022-08-21T01:51:41.713Z,14.81
2022-08-21T01:52:41.752Z,14.80
2022-08-21T01:53:41.701Z,14.78
2022-08-21T01:54:41.703Z,14.75
2022-08-21T01:55:41.786Z,14.74
2022-08-21T01:56:41.829Z,14.74
2022-08-21T01:57:41.789Z,14.74
2022-08-21T01:58:41.750Z,14.72
2022-08-21T01:59:41.779Z,14.71
2022-08-21T02:00:41.709Z,14.69
2022-08-21T02:01:42.806Z,14.68
2022-08-21T02:02:42.193Z,14.65
2022-08-21T02:03:41.628Z,14.65
2022-08-21T02:04:41.659Z,14.64
2022-08-21T02:05:41.599Z,14.64
2022-08-21T02:06:41.577Z,14.62
2022-08-21T02:07:41.578Z,14.62
2022-08-21T02:08:41.670Z,14.62
2022-08-21T02:09:42.029Z,14.61
2022-08-21T02:10:41.552Z,14.60
2022-08-21T02:11:41.526Z,14.60
2022-08-21T02:12:41.577Z,14.60
2022-08-21T02:13:41.751Z,14.56
2022-08-21T02:14:41.537Z,14.54
2022-08-21T02:15:41.713Z,14.53
2022-08-21T02:16:41.740Z,14.52
2022-08-21T02:17:41.842Z,14.50
2022-08-21T02:18:42.509Z,14.52
2022-08-21T02:19:41.856Z,14.50
2022-08-21T02:20:41.627Z,14.47
2022-08-21T02:21:41.458Z,14.47
2022-08-21T02:22:41.694Z,14.46
2022-08-21T02:23:41.754Z,14.44
2022-08-21T02:24:53.945Z,14.44
2022-08-21T02:25:41.410Z,14.43
2022-08-21T02:26:41.350Z,14.42
2022-08-21T02:27:41.341Z,14.39
2022-08-21T02:28:41.425Z,14.35
2022-08-21T02:29:42.099Z,14.34
2022-08-21T02:30:41.413Z,14.34
2022-08-21T02:31:41.391Z,14.32
2022-08-21T02:32:41.286Z,14.32
2022-08-21T02:33:41.539Z,14.31
2022-08-21T02:34:41.274Z,14.28
2022-08-21T02:35:41.296Z,14.28
2022-08-21T02:36:41.274Z,14.28
2022-08-21T02:37:41.418Z,14.27
2022-08-21T02:38:41.583Z,14.28
2022-08-21T02:39:41.356Z,14.27
2022-08-21T02:40:47.781Z,14.27
2022-08-21T02:41:41.311Z,14.27
2022-08-21T02:42:41.283Z,14.27
2022-08-21T02:43:41.411Z,14.27
2022-08-21T02:44:41.416Z,14.25
2022-08-21T02:45:41.408Z,14.25
2022-08-21T02:46:41.533Z,14.21
2022-08-21T02:47:41.217Z,14.24
2022-08-21T02:48:41.583Z,14.21
2022-08-21T02:49:41.606Z,14.19
2022-08-21T02:50:41.327Z,14.20
2022-08-21T02:51:41.327Z,14.20
2022-08-21T02:52:41.309Z,14.17
2022-08-21T02:53:41.714Z,14.16
2022-08-21T02:54:41.239Z,14.17
2022-08-21T02:55:41.271Z,14.17
2022-08-21T02:56:41.122Z,14.19
2022-08-21T02:57:41.070Z,14.17
2022-08-21T02:58:41.190Z,14.16
2022-08-21T02:59:41.134Z,14.14
2022-08-21T03:00:41.059Z,14.12
2022-08-21T03:01:41.125Z,14.12
2022-08-21T03:02:41.220Z,14.13
2022-08-21T03:03:40.997Z,14.12
2022-08-21T03:04:45.982Z,14.12
2022-08-21T03:05:40.994Z,14.12
2022-08-21T03:06:41.348Z,14.12
2022-08-21T03:07:40.996Z,14.12
2022-08-21T03:08:41.288Z,14.10
2022-08-21T03:09:55.128Z,14.07
2022-08-21T03:10:41.102Z,14.09
2022-08-21T03:11:40.947Z,14.09
2022-08-21T03:12:41.070Z,14.07
2022-08-21T03:13:41.051Z,14.07
2022-08-21T03:14:41.122Z,14.09
2022-08-21T03:15:41.225Z,14.07
2022-08-21T03:16:41.043Z,14.09
2022-08-21T03:17:40.872Z,14.09
2022-08-21T03:18:40.902Z,14.12
2022-08-21T03:19:41.112Z,14.12
2022-08-21T03:20:41.504Z,14.13
2022-08-21T03:21:40.964Z,14.14
2022-08-21T03:22:41.041Z,14.12
2022-08-21T03:23:40.857Z,14.13
2022-08-21T03:24:42.936Z,14.13
2022-08-21T03:25:41.237Z,14.12
2022-08-21T03:26:41.009Z,14.12
2022-08-21T03:27:40.787Z,14.12
2022-08-21T03:28:41.087Z,14.12
2022-08-21T03:29:41.246Z,14.12
2022-08-21T03:30:40.914Z,14.12
2022-08-21T03:31:40.743Z,14.13
2022-08-21T03:32:40.918Z,14.12
2022-08-21T03:33:41.137Z,14.10
2022-08-21T03:34:40.996Z,14.09
2022-08-21T03:35:40.758Z,14.09
2022-08-21T03:36:40.961Z,14.07
2022-08-21T03:37:41.175Z,14.06
2022-08-21T03:38:40.806Z,14.07
2022-08-21T03:39:41.052Z,14.09
2022-08-21T03:40:40.628Z,14.09
2022-08-21T03:41:40.823Z,14.10
2022-08-21T03:42:40.605Z,14.10
2022-08-21T03:43:40.644Z,14.12
2022-08-21T03:44:40.787Z,14.10
2022-08-21T03:45:40.848Z,14.10
2022-08-21T03:46:41.131Z,14.10
2022-08-21T03:47:40.631Z,14.09
2022-08-21T03:48:40.547Z,14.09
2022-08-21T03:49:41.011Z,14.06
2022-08-21T03:50:41.486Z,14.04
2022-08-21T03:51:40.521Z,14.01
2022-08-21T03:52:40.594Z,14.01
2022-08-21T03:53:40.502Z,14.01
2022-08-21T03:54:41.123Z,13.98
2022-08-21T03:55:40.714Z,13.98
2022-08-21T03:56:40.513Z,13.96
2022-08-21T03:57:40.592Z,13.96
2022-08-21T03:58:40.490Z,13.95
2022-08-21T03:59:40.501Z,13.96
2022-08-21T04:00:40.702Z,13.95
2022-08-21T04:01:40.620Z,13.95
2022-08-21T04:02:40.430Z,13.94
2022-08-21T04:03:40.600Z,13.94
2022-08-21T04:04:40.549Z,13.92
2022-08-21T04:05:40.414Z,13.92
2022-08-21T04:06:40.402Z,13.92
2022-08-21T04:07:40.470Z,13.91
2022-08-21T04:08:40.411Z,13.92
2022-08-21T04:09:40.545Z,13.91
2022-08-21T04:10:40.586Z,13.91
2022-08-21T04:11:40.861Z,13.92
2022-08-21T04:12:40.361Z,13.92
2022-08-21T04:13:44.672Z,13.91
2022-08-21T04:14:40.308Z,13.92
2022-08-21T04:15:40.313Z,13.92
2022-08-21T04:16:40.314Z,13.94
2022-08-21T04:17:40.290Z,13.94
2022-08-21T04:18:40.228Z,13.94
2022-08-21T04:19:40.473Z,13.94
2022-08-21T04:20:40.221Z,13.92
2022-08-21T04:21:40.388Z,13.92
2022-08-21T04:22:40.272Z,13.92
2022-08-21T04:23:40.332Z,13.91
2022-08-21T04:24:40.232Z,13.91
2022-08-21T04:25:40.238Z,13.92
2022-08-21T04:26:40.388Z,13.89
2022-08-21T04:27:41.255Z,13.91
2022-08-21T04:28:40.348Z,13.89
2022-08-21T04:29:40.332Z,13.88
2022-08-21T04:30:40.294Z,13.88
2022-08-21T04:31:40.220Z,13.88
2022-08-21T04:32:40.260Z,13.87
2022-08-21T04:33:40.391Z,13.87
2022-08-21T04:34:40.136Z,13.84
2022-08-21T04:35:40.236Z,13.88
2022-08-21T04:36:40.346Z,13.88
2022-08-21T04:37:42.287Z,13.88
2022-08-21T04:38:44.547Z,13.88
2022-08-21T04:39:40.169Z,13.88
2022-08-21T04:40:40.064Z,13.88
2022-08-21T04:41:40.197Z,13.88
2022-08-21T04:42:40.027Z,13.88
2022-08-21T04:43:40.069Z,13.89
2022-08-21T04:44:40.050Z,13.88
2022-08-21T04:45:40.361Z,13.91
2022-08-21T04:46:40.219Z,13.91
2022-08-21T04:47:44.501Z,13.92
2022-08-21T04:48:40.031Z,13.89
2022-08-21T04:49:40.165Z,13.91
2022-08-21T04:50:40.112Z,13.92
2022-08-21T04:51:40.399Z,13.92
2022-08-21T04:52:39.920Z,13.94
2022-08-21T04:53:40.381Z,13.92
2022-08-21T04:54:40.142Z,13.92
2022-08-21T04:55:40.187Z,13.91
2022-08-21T04:56:40.013Z,13.92
2022-08-21T04:57:48.647Z,13.95
2022-08-21T04:58:39.889Z,13.92
2022-08-21T04:59:40.081Z,13.94
2022-08-21T05:00:40.011Z,13.95
2022-08-21T05:01:40.036Z,13.95
2022-08-21T05:02:39.821Z,13.96
2022-08-21T05:03:39.861Z,13.96
2022-08-21T05:04:39.812Z,13.96
2022-08-21T05:05:40.174Z,13.96
2022-08-21T05:06:40.091Z,13.98
2022-08-21T05:07:42.744Z,14.01
2022-08-21T05:08:39.747Z,14.02
2022-08-21T05:09:39.783Z,14.04
2022-08-21T05:10:39.826Z,14.07
2022-08-21T05:11:39.832Z,14.07
2022-08-21T05:12:39.722Z,14.10
2022-08-21T05:13:39.726Z,14.10
2022-08-21T05:14:39.743Z,14.12
2022-08-21T05:15:39.711Z,14.13
2022-08-21T05:16:39.749Z,14.14
2022-08-21T05:17:39.727Z,14.17
2022-08-21T05:18:39.734Z,14.20
2022-08-21T05:19:39.653Z,14.24
2022-08-21T05:20:39.689Z,14.27
2022-08-21T05:21:39.835Z,14.28
2022-08-21T05:22:39.727Z,14.31
2022-08-21T05:23:39.737Z,14.32
2022-08-21T05:24:39.708Z,14.35
2022-08-21T05:25:39.632Z,14.37
2022-08-21T05:26:45.878Z,14.37
2022-08-21T05:27:39.812Z,14.38
2022-08-21T05:28:39.569Z,14.42
2022-08-21T05:29:39.543Z,14.46
2022-08-21T05:30:39.599Z,14.49
2022-08-21T05:31:39.621Z,14.52
2022-08-21T05:32:39.556Z,14.53
2022-08-21T05:33:39.671Z,14.57
2022-08-21T05:34:39.596Z,14.60
2022-08-21T05:35:39.558Z,14.64
2022-08-21T05:36:39.555Z,14.65
2022-08-21T05:37:39.506Z,14.67
2022-08-21T05:38:39.619Z,14.71
2022-08-21T05:40:20.689Z,14.74
2022-08-21T05:40:39.607Z,14.78
2022-08-21T05:41:39.418Z,14.80
2022-08-21T05:42:39.540Z,14.84
2022-08-21T05:43:39.725Z,14.86
2022-08-21T05:44:39.442Z,14.88
2022-08-21T05:45:42.905Z,14.91
2022-08-21T05:46:39.532Z,14.94
2022-08-21T05:47:39.489Z,14.95
2022-08-21T05:48:39.497Z,15.01
2022-08-21T05:49:39.655Z,15.03
2022-08-21T05:50:39.511Z,15.06
2022-08-21T05:51:39.644Z,15.08
2022-08-21T05:52:39.343Z,15.12
2022-08-21T05:53:39.553Z,15.15
2022-08-21T05:54:39.544Z,15.20
2022-08-21T05:55:44.889Z,15.26
2022-08-21T05:56:39.422Z,15.27
2022-08-21T05:57:39.773Z,15.35
2022-08-21T05:58:39.342Z,15.38
2022-08-21T05:59:39.298Z,15.43
2022-08-21T06:00:39.270Z,15.48
2022-08-21T06:01:39.802Z,15.51
2022-08-21T06:02:39.593Z,15.54
2022-08-21T06:03:39.242Z,15.56
2022-08-21T06:04:39.207Z,15.60
2022-08-21T06:05:39.282Z,15.61
2022-08-21T06:06:39.385Z,15.66
2022-08-21T06:07:39.212Z,15.70
2022-08-21T06:08:39.213Z,15.75
2022-08-21T06:09:39.575Z,15.78
2022-08-21T06:10:39.311Z,15.79
2022-08-21T06:11:39.167Z,15.82
2022-08-21T06:12:39.203Z,15.85
2022-08-21T06:13:39.323Z,15.89
2022-08-21T06:14:39.087Z,15.93
2022-08-21T06:15:39.249Z,15.94
2022-08-21T06:16:39.459Z,15.97
2022-08-21T06:17:39.043Z,16.00
2022-08-21T06:18:39.034Z,16.03
2022-08-21T06:19:39.103Z,16.09
2022-08-21T06:20:39.036Z,16.14
2022-08-21T06:21:39.075Z,16.16
2022-08-21T06:22:39.034Z,16.20
2022-08-21T06:23:39.041Z,16.27
2022-08-21T06:24:39.650Z,16.33
2022-08-21T06:25:39.263Z,16.35
2022-08-21T06:26:39.188Z,16.40
2022-08-21T06:27:39.200Z,16.44
2022-08-21T06:28:39.293Z,16.50
2022-08-21T06:29:44.671Z,16.50
2022-08-21T06:30:39.021Z,16.55
2022-08-21T06:31:38.963Z,16.58
2022-08-21T06:32:39.011Z,16.62
2022-08-21T06:33:38.881Z,16.65
2022-08-21T06:34:39.338Z,16.68
2022-08-21T06:35:41.406Z,16.70
2022-08-21T06:36:39.247Z,16.73
2022-08-21T06:37:38.907Z,16.74
2022-08-21T06:38:38.893Z,16.75
2022-08-21T06:39:43.272Z,16.75
2022-08-21T06:40:38.928Z,16.80
2022-08-21T06:41:39.315Z,16.81
2022-08-21T06:42:38.821Z,16.83
2022-08-21T06:43:39.710Z,16.86
2022-08-21T06:44:38.786Z,16.92
2022-08-21T06:45:38.896Z,16.95
2022-08-21T06:46:38.813Z,16.98
2022-08-21T06:47:38.867Z,16.99
2022-08-21T06:48:38.877Z,17.03
2022-08-21T06:49:38.786Z,17.07
2022-08-21T06:50:38.883Z,17.10
2022-08-21T06:51:38.780Z,17.10
2022-08-21T06:52:38.751Z,17.14
2022-08-21T06:53:39.000Z,17.20
2022-08-21T06:54:38.673Z,17.20
2022-08-21T06:55:38.907Z,17.25
2022-08-21T06:56:38.908Z,17.28
2022-08-21T06:57:38.773Z,17.32
2022-08-21T06:58:39.264Z,17.35
2022-08-21T06:59:38.740Z,17.40
2022-08-21T07:00:38.721Z,17.43
2022-08-21T07:01:39.299Z,17.46
2022-08-21T07:02:41.493Z,17.50
2022-08-21T07:03:38.618Z,17.53
2022-08-21T07:04:38.602Z,17.57
2022-08-21T07:05:38.616Z,17.62
2022-08-21T07:06:38.631Z,17.67
2022-08-21T07:07:39.315Z,17.70
2022-08-21T07:08:38.977Z,17.76
2022-08-21T07:09:38.617Z,17.79
2022-08-21T07:10:38.582Z,17.84
2022-08-21T07:11:44.237Z,17.88
2022-08-21T07:12:38.493Z,17.91
2022-08-21T07:13:38.615Z,17.95
2022-08-21T07:14:38.546Z,18.00
2022-08-21T07:15:38.474Z,18.03
2022-08-21T07:16:38.665Z,18.06
2022-08-21T07:17:38.483Z,18.09
2022-08-21T07:18:38.465Z,18.12
2022-08-21T07:19:38.497Z,18.15
2022-08-21T07:20:38.429Z,18.19
2022-08-21T07:21:38.439Z,18.21
2022-08-21T07:22:38.459Z,18.24
2022-08-21T07:23:38.392Z,18.27
2022-08-21T07:24:38.433Z,18.29
2022-08-21T07:25:38.426Z,18.33
2022-08-21T07:26:38.643Z,18.37
2022-08-21T07:27:38.401Z,18.37
2022-08-21T07:28:38.357Z,18.42
2022-08-21T07:29:38.391Z,18.49
2022-08-21T07:30:38.331Z,18.55
2022-08-21T07:31:38.757Z,18.59
2022-08-21T07:32:38.303Z,18.64
2022-08-21T07:33:38.344Z,18.72
2022-08-21T07:34:38.280Z,18.74
2022-08-21T07:35:38.287Z,18.82
2022-08-21T07:36:38.332Z,18.87
2022-08-21T07:37:38.507Z,18.95
2022-08-21T07:38:38.451Z,18.99
2022-08-21T07:39:38.349Z,19.06
2022-08-21T07:40:38.219Z,19.10
2022-08-21T07:41:38.452Z,19.17
2022-08-21T07:42:38.285Z,19.24
2022-08-21T07:43:38.238Z,19.31
2022-08-21T07:44:38.230Z,19.38
2022-08-21T07:45:38.150Z,19.40
2022-08-21T07:46:38.409Z,19.46
2022-08-21T07:47:42.332Z,19.48
2022-08-21T07:48:38.295Z,19.50
2022-08-21T07:49:38.157Z,19.54
2022-08-21T07:50:38.143Z,19.55
2022-08-21T07:51:38.102Z,19.57
2022-08-21T07:52:38.136Z,19.63
2022-08-21T07:53:38.129Z,19.66
2022-08-21T07:54:38.168Z,19.70
2022-08-21T07:55:38.350Z,19.76
2022-08-21T07:56:38.162Z,19.79
2022-08-21T07:57:38.125Z,19.83
2022-08-21T07:58:38.112Z,19.84
2022-08-21T07:59:38.034Z,19.86
2022-08-21T08:00:38.037Z,19.91
2022-08-21T08:01:38.087Z,19.93
2022-08-21T08:02:38.032Z,19.97
2022-08-21T08:03:37.997Z,19.98
2022-08-21T08:04:37.981Z,20.02
2022-08-21T08:05:37.991Z,20.05
2022-08-21T08:06:37.939Z,20.08
2022-08-21T08:07:37.978Z,20.08
2022-08-21T08:08:38.001Z,20.10
2022-08-21T08:09:38.020Z,20.15
2022-08-21T08:10:38.128Z,20.18
2022-08-21T08:11:37.900Z,20.24
2022-08-21T08:12:38.132Z,20.30
2022-08-21T08:13:38.612Z,20.33
2022-08-21T08:14:37.892Z,20.35
2022-08-21T08:15:37.916Z,20.34
2022-08-21T08:16:37.929Z,20.35
2022-08-21T08:17:37.909Z,20.38
2022-08-21T08:18:37.869Z,20.41
2022-08-21T08:19:37.843Z,20.41
2022-08-21T08:20:37.816Z,20.43
2022-08-21T08:21:37.845Z,20.49
2022-08-21T08:22:37.779Z,20.51
2022-08-21T08:23:37.824Z,20.56
2022-08-21T08:24:37.825Z,20.58
2022-08-21T08:25:37.855Z,20.61
2022-08-21T08:26:37.806Z,20.65
2022-08-21T08:27:37.744Z,20.69
2022-08-21T08:28:37.758Z,20.71
2022-08-21T08:29:37.725Z,20.77
2022-08-21T08:30:37.714Z,20.83
2022-08-21T08:31:37.749Z,20.89
2022-08-21T08:32:37.840Z,20.93
2022-08-21T08:33:37.739Z,20.99
2022-08-21T08:34:37.713Z,21.04
2022-08-21T08:35:38.934Z,21.06
2022-08-21T08:36:37.643Z,21.08
2022-08-21T08:37:37.686Z,21.11
2022-08-21T08:38:37.660Z,21.14
2022-08-21T08:39:37.729Z,21.19
2022-08-21T08:40:37.654Z,21.20
2022-08-21T08:41:37.620Z,21.19
2022-08-21T08:42:37.572Z,21.21
2022-08-21T08:43:37.648Z,21.23
2022-08-21T08:44:37.581Z,21.26
2022-08-21T08:45:37.547Z,21.35
2022-08-21T08:46:37.538Z,21.39
2022-08-21T08:47:37.545Z,21.42
2022-08-21T08:48:37.537Z,21.50
2022-08-21T08:49:37.672Z,21.56
2022-08-21T08:50:37.579Z,21.60
2022-08-21T08:51:37.509Z,21.67
2022-08-21T08:52:37.537Z,21.72
2022-08-21T08:53:37.500Z,21.76
2022-08-21T08:54:37.623Z,21.81
2022-08-21T08:55:37.549Z,21.85
2022-08-21T08:56:37.623Z,21.91
2022-08-21T08:57:38.115Z,21.91
2022-08-21T08:58:37.515Z,21.92
2022-08-21T08:59:37.556Z,21.97
2022-08-21T09:00:37.445Z,22.02
2022-08-21T09:01:39.239Z,22.13
2022-08-21T09:02:37.393Z,22.20
2022-08-21T09:03:37.468Z,22.25
2022-08-21T09:04:37.445Z,22.29
2022-08-21T09:05:37.382Z,22.31
2022-08-21T09:06:37.483Z,22.32
2022-08-21T09:07:37.380Z,22.39
2022-08-21T09:08:37.369Z,22.50
2022-08-21T09:09:37.333Z,22.57
2022-08-21T09:10:37.341Z,22.62
2022-08-21T09:11:37.422Z,22.69
2022-08-21T09:12:37.300Z,22.72
2022-08-21T09:13:38.745Z,22.83
2022-08-21T09:14:37.425Z,22.87
2022-08-21T09:15:37.421Z,22.84
2022-08-21T09:16:37.458Z,22.83
2022-08-21T09:17:37.281Z,22.74
2022-08-21T09:18:37.240Z,22.64
2022-08-21T09:19:37.451Z,22.56
2022-08-21T09:20:37.475Z,22.54
2022-08-21T09:21:37.259Z,22.54
2022-08-21T09:22:37.209Z,22.54
2022-08-21T09:23:37.223Z,22.53
2022-08-21T09:24:37.236Z,22.59
2022-08-21T09:25:37.306Z,22.62
2022-08-21T09:26:37.182Z,22.69
2022-08-21T09:27:37.164Z,22.77
2022-08-21T09:28:37.180Z,22.83
2022-08-21T09:29:37.123Z,22.89
2022-08-21T09:30:37.147Z,22.94
2022-08-21T09:31:37.137Z,23.04
2022-08-21T09:32:38.190Z,23.12
2022-08-21T09:33:37.112Z,23.26
2022-08-21T09:34:37.080Z,23.32
2022-08-21T09:35:37.107Z,23.34
2022-08-21T09:36:37.079Z,23.39
2022-08-21T09:37:37.136Z,23.55
2022-08-21T09:38:37.267Z,23.70
2022-08-21T09:39:40.143Z,23.83
2022-08-21T09:40:37.520Z,24.04
2022-08-21T09:41:37.062Z,24.22
2022-08-21T09:42:37.128Z,24.37
2022-08-21T09:43:37.196Z,24.47
2022-08-21T09:44:37.200Z,24.53
2022-08-21T09:45:36.990Z,24.59
2022-08-21T09:46:37.352Z,24.59
2022-08-21T09:47:36.954Z,24.60
2022-08-21T09:48:37.263Z,24.57
2022-08-21T09:49:37.129Z,24.59
2022-08-21T09:50:36.927Z,24.61
2022-08-21T09:51:36.990Z,24.77
2022-08-21T09:52:36.962Z,24.79
2022-08-21T09:53:36.890Z,24.94
2022-08-21T09:54:36.886Z,25.02
2022-08-21T09:55:37.119Z,25.17
2022-08-21T09:56:36.895Z,25.28
2022-08-21T09:57:36.929Z,25.44
2022-08-21T09:58:36.940Z,25.62
2022-08-21T09:59:37.427Z,25.80
2022-08-21T10:00:37.042Z,25.62
2022-08-21T10:01:36.872Z,25.43
2022-08-21T10:02:36.988Z,25.44
2022-08-21T10:03:36.833Z,25.47
2022-08-21T10:04:36.830Z,25.65
2022-08-21T10:05:36.825Z,25.93
2022-08-21T10:06:36.995Z,26.40
2022-08-21T10:07:37.073Z,26.77
2022-08-21T10:08:36.774Z,26.92
2022-08-21T10:09:36.760Z,27.17
2022-08-21T10:10:36.742Z,27.35
2022-08-21T10:11:36.773Z,27.46
2022-08-21T10:12:36.908Z,27.57
2022-08-21T10:13:36.798Z,27.67
2022-08-21T10:14:36.949Z,27.70
2022-08-21T10:15:36.673Z,27.57
2022-08-21T10:16:36.696Z,27.47
2022-08-21T10:17:37.192Z,27.41
2022-08-21T10:18:36.658Z,27.21
2022-08-21T10:19:37.223Z,27.09
2022-08-21T10:20:36.668Z,27.14
2022-08-21T10:21:36.843Z,27.16
2022-08-21T10:22:36.616Z,27.29
2022-08-21T10:23:36.808Z,27.53
2022-08-21T10:24:36.605Z,27.69
2022-08-21T10:25:36.619Z,27.89
2022-08-21T10:26:36.736Z,28.07
2022-08-21T10:27:36.582Z,27.73
2022-08-21T10:28:36.745Z,27.59
2022-08-21T10:29:36.690Z,27.43
2022-08-21T10:30:36.664Z,27.57
2022-08-21T10:31:36.584Z,27.66
2022-08-21T10:32:36.743Z,27.66
2022-08-21T10:33:36.563Z,27.92
2022-08-21T10:34:36.528Z,28.22
2022-08-21T10:35:36.869Z,28.38
2022-08-21T10:36:36.507Z,28.65
2022-08-21T10:37:36.815Z,28.66
2022-08-21T10:38:52.731Z,28.95
2022-08-21T10:39:36.645Z,29.23
2022-08-21T10:40:36.491Z,29.33
2022-08-21T10:41:36.439Z,28.96
2022-08-21T10:42:36.510Z,29.03
2022-08-21T10:43:36.505Z,29.26
2022-08-21T10:44:36.385Z,29.38
2022-08-21T10:45:36.449Z,29.44
2022-08-21T10:46:36.448Z,29.41
2022-08-21T10:47:36.482Z,29.23
2022-08-21T10:48:36.448Z,29.22
2022-08-21T10:49:36.520Z,29.13
2022-08-21T10:50:36.381Z,29.22
2022-08-21T10:51:36.549Z,29.34
2022-08-21T10:52:36.469Z,29.41
2022-08-21T10:53:36.427Z,29.50
2022-08-21T10:54:36.420Z,29.59
2022-08-21T10:55:36.663Z,29.68
2022-08-21T10:56:36.296Z,29.81
2022-08-21T10:57:36.295Z,29.93
2022-08-21T10:58:36.272Z,29.99
2022-08-21T10:59:38.775Z,29.87
2022-08-21T11:00:36.348Z,29.57
2022-08-21T11:01:36.358Z,29.49
2022-08-21T11:02:36.357Z,29.33
2022-08-21T11:03:36.227Z,29.29
2022-08-21T11:04:49.280Z,29.34
2022-08-21T11:05:36.608Z,29.28
2022-08-21T11:06:36.360Z,29.20
2022-08-21T11:07:36.201Z,29.33
2022-08-21T11:08:36.181Z,29.60
2022-08-21T11:09:36.193Z,29.81
2022-08-21T11:10:36.272Z,30.05
2022-08-21T11:11:36.401Z,30.16
2022-08-21T11:12:36.219Z,30.00
2022-08-21T11:13:36.183Z,29.94
2022-08-21T11:14:36.275Z,29.62
2022-08-21T11:15:36.112Z,29.53
2022-08-21T11:16:36.100Z,29.52
2022-08-21T11:17:36.102Z,29.57
2022-08-21T11:18:36.286Z,29.65
2022-08-21T11:19:36.304Z,29.53
2022-08-21T11:20:36.395Z,29.31
2022-08-21T11:21:36.055Z,29.25
2022-08-21T11:22:36.326Z,29.08
2022-08-21T11:23:36.177Z,28.97
2022-08-21T11:24:36.121Z,28.95
2022-08-21T11:25:37.118Z,28.35
2022-08-21T11:26:36.079Z,28.28
2022-08-21T11:27:36.220Z,28.29
2022-08-21T11:28:36.039Z,28.22
2022-08-21T11:29:36.000Z,28.10
2022-08-21T11:30:36.218Z,28.10
2022-08-21T11:31:36.145Z,28.28
2022-08-21T11:32:36.058Z,28.53
2022-08-21T11:33:36.054Z,28.66
2022-08-21T11:34:35.985Z,28.65
2022-08-21T11:35:35.977Z,28.70
2022-08-21T11:36:36.161Z,28.60
2022-08-21T11:37:35.991Z,28.48
2022-08-21T11:38:35.950Z,28.36
2022-08-21T11:39:36.097Z,28.35
2022-08-21T11:40:35.906Z,28.38
2022-08-21T11:41:35.855Z,28.50
2022-08-21T11:42:36.045Z,28.81
2022-08-21T11:43:36.053Z,29.08
2022-08-21T11:44:35.886Z,29.35
2022-08-21T11:45:35.864Z,29.47
2022-08-21T11:46:35.889Z,29.41
2022-08-21T11:47:36.113Z,29.35
2022-08-21T11:48:35.881Z,29.37
2022-08-21T11:49:35.846Z,29.43
2022-08-21T11:50:36.531Z,29.59
2022-08-21T11:51:35.841Z,29.41
2022-08-21T11:52:35.954Z,29.40
2022-08-21T11:53:35.807Z,29.47
2022-08-21T11:54:35.876Z,29.38
2022-08-21T11:55:36.096Z,29.33
2022-08-21T11:56:35.778Z,29.26
2022-08-21T11:57:35.799Z,29.40
2022-08-21T11:58:35.734Z,29.31
2022-08-21T11:59:40.525Z,29.22
2022-08-21T12:00:35.797Z,29.16
2022-08-21T12:01:35.842Z,29.07
2022-08-21T12:02:35.734Z,29.10
2022-08-21T12:03:35.694Z,29.08
2022-08-21T12:04:35.730Z,29.10
2022-08-21T12:05:35.848Z,29.15
2022-08-21T12:06:35.845Z,29.16
2022-08-21T12:07:35.757Z,29.31
2022-08-21T12:08:35.648Z,29.37
2022-08-21T12:09:35.652Z,29.37
2022-08-21T12:10:35.687Z,29.38
2022-08-21T12:11:35.906Z,29.47
2022-08-21T12:12:35.634Z,29.56
2022-08-21T12:13:40.482Z,29.66
2022-08-21T12:14:35.721Z,29.66
2022-08-21T12:15:35.612Z,29.50
2022-08-21T12:16:35.595Z,29.53
2022-08-21T12:17:35.605Z,29.53
2022-08-21T12:18:35.602Z,29.65
2022-08-21T12:19:35.674Z,29.68
2022-08-21T12:20:35.634Z,29.62
2022-08-21T12:21:35.601Z,29.66
2022-08-21T12:22:35.559Z,29.59
2022-08-21T12:23:35.655Z,29.59
2022-08-21T12:24:35.595Z,29.55
2022-08-21T12:25:35.625Z,29.52
2022-08-21T12:26:35.512Z,29.53
2022-08-21T12:27:35.730Z,29.41
2022-08-21T12:28:35.556Z,29.19
2022-08-21T12:29:35.515Z,28.96
2022-08-21T12:30:35.517Z,28.82
2022-08-21T12:31:35.777Z,28.78
2022-08-21T12:32:35.479Z,28.77
2022-08-21T12:33:35.477Z,28.75
2022-08-21T12:34:35.426Z,28.87
2022-08-21T12:35:35.434Z,28.88
2022-08-21T12:36:38.696Z,28.78
2022-08-21T12:37:35.482Z,28.84
2022-08-21T12:38:35.440Z,29.01
2022-08-21T12:39:35.459Z,29.19
2022-08-21T12:40:35.593Z,29.29
2022-08-21T12:41:35.604Z,28.81
2022-08-21T12:42:35.376Z,28.50
2022-08-21T12:43:35.397Z,28.43
2022-08-21T12:44:35.455Z,27.88
2022-08-21T12:45:35.471Z,27.73
2022-08-21T12:46:35.722Z,27.77
2022-08-21T12:47:35.330Z,27.95
2022-08-21T12:48:35.476Z,28.14
2022-08-21T12:49:35.370Z,28.13
2022-08-21T12:50:35.314Z,28.14
2022-08-21T12:51:35.487Z,28.11
2022-08-21T12:52:39.116Z,28.13